Time;durP1;ratioP1;P1;durP2;ratioP2;P2;SDS_P1;SDS_P2;PMS_P1;PMS_P2;Temp;Humidity;BMP_temperature;BMP_pressure;BME280_temperature;BME280_humidity;BME280_pressure;Samples;Min_cycle;Max_cycle;Signal;HPM_P1;HPM_P2
2022/05/13 09:03:26;;;;;;;;;;;19.60;52.90;;;;;;5042526;27;20416;-88
2022/05/13 09:06:16;;;;;;;;;;;19.60;55.30;;;;;;5029868;28;20025;-89
2022/05/13 09:08:42;;;;;;;;;;;19.70;56.90;;;;;;5009042;28;19996;-92
2022/05/13 09:11:08;;;;;;;;;;;19.90;57.20;;;;;;5004020;28;19922;-87
2022/05/13 09:13:45;;;;;;;;;;;20.10;57.50;;;;;;4949943;28;20336;-86
2022/05/13 09:16:11;;;;;;;;;;;20.30;56.10;;;;;;4984489;28;19918;-83
2022/05/13 09:18:41;;;;;;;;;;;20.30;53.00;;;;;;5001983;28;19976;-88
2022/05/13 09:21:14;;;;;;;;;;;20.50;50.70;;;;;;5014480;28;19993;-86
2022/05/13 09:23:40;;;;;;;;;;;20.40;49.60;;;;;;5016054;28;19921;-85
2022/05/13 09:26:17;;;;;;;;;;;20.40;48.50;;;;;;5004999;28;19928;-85
2022/05/13 09:29:03;;;;;;;;;;;20.40;48.90;;;;;;4984790;28;19924;-86
2022/05/13 09:31:30;;;;;;;;;;;20.40;48.90;;;;;;5000458;28;19918;-83
2022/05/13 09:33:56;;;;;;;;;;;20.40;47.90;;;;;;4998696;28;19921;-85
2022/05/13 09:36:22;;;;;;;;;;;20.40;47.70;;;;;;5000162;28;19932;-84
2022/05/13 09:38:50;;;;;;;;;;;20.40;48.40;;;;;;4997721;28;19922;-83
2022/05/13 09:41:25;;;;;;;;;;;20.40;48.90;;;;;;4964954;28;19926;-84
2022/05/13 09:43:51;;;;;;;;;;;20.40;48.60;;;;;;4969005;28;19922;-83
2022/05/13 09:46:31;;;;;;;;;;;20.40;47.20;;;;;;5017490;28;19913;-87
2022/05/13 09:49:01;;;;;;;;;;;20.40;47.00;;;;;;5023061;28;19921;-83
2022/05/13 09:51:27;;;;;;;;;;;20.40;46.50;;;;;;5022722;28;19968;-81
2022/05/13 09:54:01;;;;;;;;;;;20.40;46.40;;;;;;5023272;28;19921;-87
2022/05/13 09:56:37;;;;;;;;;;;20.40;46.50;;;;;;5022247;28;19921;-86
2022/05/13 09:59:05;;;;;;;;;;;20.30;46.50;;;;;;5023610;28;19922;-89
2022/05/13 10:01:31;;;;;;;;;;;20.30;47.20;;;;;;5019938;28;19929;-82
2022/05/13 10:04:08;;;;;;;;;;;20.20;47.20;;;;;;5026008;28;19921;-84
2022/05/13 10:06:35;;;;;;;;;;;20.20;47.70;;;;;;5029880;28;19921;-85
2022/05/13 10:14:37;;;;;;;;;;;20.30;46.60;;;;;;5013168;28;19925;-82
2022/05/13 10:17:25;;;;;;;;;;;20.30;46.30;;;;;;5013475;28;19921;-84
2022/05/13 10:19:57;;;;;;;;;;;20.20;46.80;;;;;;5041718;28;21471;-81
2022/05/13 10:22:29;;;;;;;;;;;20.20;47.30;;;;;;5011438;28;19921;-84
2022/05/13 10:25:03;;;;;;;;;;;20.10;47.90;;;;;;5026096;28;19902;-80
2022/05/13 10:27:57;;;;;;;;;;;20.10;48.30;;;;;;5046553;28;20446;-79
2022/05/13 10:30:41;;;;;;;;;;;20.10;47.90;;;;;;5028914;28;19921;-82
2022/05/13 10:33:27;;;;;;;;;;;20.20;47.30;;;;;;5011607;28;19971;-85
2022/05/13 10:36:11;;;;;;;;;;;20.20;47.10;;;;;;5009823;28;19926;-80
2022/05/13 10:38:48;;;;;;;;;;;20.20;47.60;;;;;;5047392;28;19922;-86
2022/05/13 10:41:32;;;;;;;;;;;20.20;48.10;;;;;;5013004;28;19994;-87
2022/05/13 10:44:06;;;;;;;;;;;20.20;48.30;;;;;;5042471;28;20422;-86
2022/05/13 10:46:39;;;;;;;;;;;20.30;48.50;;;;;;5044518;28;19921;-80
2022/05/13 10:49:05;;;;;;;;;;;20.30;48.10;;;;;;5012877;28;19921;-86
2022/05/13 10:51:39;;;;;;;;;;;20.40;45.80;;;;;;5010799;28;19929;-85
2022/05/13 10:54:11;;;;;;;;;;;20.40;45.60;;;;;;5003791;28;19930;-82
2022/05/13 10:56:42;;;;;;;;;;;20.30;46.50;;;;;;5024132;28;19922;-86
2022/05/13 10:59:14;;;;;;;;;;;20.20;46.60;;;;;;5005437;28;19921;-83
2022/05/13 11:01:49;;;;;;;;;;;20.30;46.20;;;;;;5004817;28;19932;-89
2022/05/13 11:04:27;;;;;;;;;;;20.30;45.70;;;;;;5008209;28;19914;-83
2022/05/13 11:07:00;;;;;;;;;;;20.30;46.50;;;;;;5006539;28;19925;-79
2022/05/13 11:09:44;;;;;;;;;;;20.30;46.40;;;;;;5009576;28;19944;-84
2022/05/13 11:12:17;;;;;;;;;;;20.30;45.80;;;;;;5013017;28;20213;-85
2022/05/13 11:15:09;;;;;;;;;;;20.30;46.10;;;;;;5007579;28;19932;-83
2022/05/13 11:17:44;;;;;;;;;;;20.30;45.90;;;;;;5006514;28;19926;-83
2022/05/13 11:20:29;;;;;;;;;;;20.30;46.30;;;;;;5024074;28;20413;-84
2022/05/13 11:22:57;;;;;;;;;;;20.20;46.80;;;;;;5009937;28;19932;-85
2022/05/13 11:28:25;;;;;;;;;;;20.30;46.90;;;;;;5010384;28;19921;-89
2022/05/13 11:31:11;;;;;;;;;;;20.30;47.90;;;;;;5010898;28;19922;-86
2022/05/13 11:33:53;;;;;;;;;;;20.40;49.20;;;;;;4991713;28;20016;-83
2022/05/13 11:36:27;;;;;;;;;;;20.40;50.50;;;;;;5005563;28;19964;-84
2022/05/13 11:39:13;;;;;;;;;;;20.50;51.40;;;;;;4995385;28;19929;-85
2022/05/13 11:42:05;;;;;;;;;;;20.50;51.10;;;;;;4975083;28;19941;-83
2022/05/13 11:44:42;;;;;;;;;;;20.50;49.60;;;;;;4951492;28;20124;-85
2022/05/13 11:47:13;;;;;;;;;;;20.50;48.80;;;;;;4989824;28;20131;-86
2022/05/13 11:49:43;;;;;;;;;;;20.60;47.40;;;;;;4987444;28;19972;-84
2022/05/13 11:52:11;;;;;;;;;;;20.60;46.50;;;;;;5009107;28;19922;-84
2022/05/13 11:54:39;;;;;;;;;;;20.60;46.70;;;;;;4993462;28;19929;-85
2022/05/13 11:57:16;;;;;;;;;;;20.60;46.70;;;;;;5010526;28;19969;-85
2022/05/13 11:59:45;;;;;;;;;;;20.50;47.00;;;;;;5011629;28;20032;-85
2022/05/13 12:02:28;;;;;;;;;;;20.60;47.60;;;;;;4992727;28;19980;-81
2022/05/13 12:05:03;;;;;;;;;;;20.50;47.30;;;;;;4966689;28;19953;-80
2022/05/13 12:07:30;;;;;;;;;;;20.60;47.20;;;;;;4978321;28;19917;-82
2022/05/13 12:09:57;;;;;;;;;;;20.60;47.00;;;;;;5010822;28;19933;-82
2022/05/13 12:13:02;;;;;;;;;;;20.60;46.30;;;;;;5040395;28;19944;-82
2022/05/13 12:15:40;;;;;;;;;;;20.60;46.10;;;;;;4983219;28;20546;-82
2022/05/13 12:18:18;;;;;;;;;;;20.50;46.90;;;;;;4985294;28;20025;-82
2022/05/13 12:20:44;;;;;;;;;;;20.50;48.10;;;;;;4952812;28;19926;-82
2022/05/13 12:23:13;;;;;;;;;;;20.40;50.70;;;;;;4969434;28;19926;-81
2022/05/13 12:25:47;;;;;;;;;;;20.40;51.90;;;;;;4984066;28;20429;-81
2022/05/13 12:28:16;;;;;;;;;;;20.40;52.60;;;;;;4968962;28;19925;-80
2022/05/13 12:30:43;;;;;;;;;;;20.30;53.00;;;;;;4968547;28;20032;-81
2022/05/13 12:33:23;;;;;;;;;;;20.30;53.20;;;;;;4984733;28;19929;-82
2022/05/13 12:38:55;;;;;;;;;;;20.30;53.80;;;;;;5000382;28;20008;-82
2022/05/13 12:41:24;;;;;;;;;;;20.30;53.60;;;;;;4949688;28;19926;-83
2022/05/13 12:43:54;;;;;;;;;;;20.40;53.20;;;;;;4951738;28;20029;-83
2022/05/13 12:46:40;;;;;;;;;;;20.30;52.60;;;;;;5027930;28;20382;-83
2022/05/13 12:49:11;;;;;;;;;;;20.30;52.50;;;;;;5024150;28;19921;-84
2022/05/13 12:51:41;;;;;;;;;;;20.40;50.50;;;;;;5025202;28;19921;-84
2022/05/13 12:54:08;;;;;;;;;;;20.40;49.60;;;;;;5008564;28;19927;-84
2022/05/13 12:56:55;;;;;;;;;;;20.40;49.60;;;;;;5008504;28;20123;-84
2022/05/13 12:59:27;;;;;;;;;;;20.40;49.80;;;;;;5024493;28;19925;-83
2022/05/13 13:01:56;;;;;;;;;;;20.40;49.70;;;;;;5026313;28;20061;-83
2022/05/13 13:04:24;;;;;;;;;;;20.40;48.50;;;;;;5024487;28;19921;-85
2022/05/13 13:06:50;;;;;;;;;;;20.50;47.80;;;;;;5015152;28;19928;-84
2022/05/13 13:09:16;;;;;;;;;;;20.50;47.10;;;;;;5025686;28;19925;-83
2022/05/13 13:11:42;;;;;;;;;;;20.50;47.30;;;;;;5027111;28;20016;-83
2022/05/13 13:14:32;;;;;;;;;;;20.50;47.70;;;;;;5025623;28;20007;-83
2022/05/13 13:17:24;;;;;;;;;;;20.50;47.70;;;;;;5027042;28;20342;-86
2022/05/13 13:19:55;;;;;;;;;;;20.40;47.50;;;;;;4972846;28;20369;-86
2022/05/13 13:22:22;;;;;;;;;;;20.50;47.60;;;;;;4972702;28;19967;-86
2022/05/13 13:24:48;;;;;;;;;;;20.50;47.30;;;;;;4954895;28;19949;-86
2022/05/13 13:27:18;;;;;;;;;;;20.50;47.60;;;;;;4968535;28;20404;-86
2022/05/13 13:29:44;;;;;;;;;;;20.50;47.60;;;;;;4985319;28;19922;-86
2022/05/13 13:32:15;;;;;;;;;;;20.50;47.60;;;;;;4953679;28;20423;-83
2022/05/13 13:34:48;;;;;;;;;;;20.50;46.90;;;;;;4969162;28;20020;-85
2022/05/13 13:37:15;;;;;;;;;;;20.50;47.30;;;;;;4969560;28;19918;-84
2022/05/13 13:39:41;;;;;;;;;;;20.50;47.40;;;;;;4984948;28;19921;-84
2022/05/13 13:42:07;;;;;;;;;;;20.50;47.70;;;;;;4959042;28;19926;-84
2022/05/13 13:44:33;;;;;;;;;;;20.50;48.10;;;;;;4965956;28;19933;-83
2022/05/13 13:46:59;;;;;;;;;;;20.50;48.90;;;;;;4967018;28;19926;-85
2022/05/13 13:49:27;;;;;;;;;;;20.50;49.40;;;;;;4984989;28;20404;-84
2022/05/13 13:51:56;;;;;;;;;;;20.50;50.20;;;;;;4970123;28;20366;-85
2022/05/13 13:54:24;;;;;;;;;;;20.40;50.60;;;;;;4970921;28;19928;-86
2022/05/13 13:57:05;;;;;;;;;;;20.40;51.00;;;;;;5017798;28;19921;-85
2022/05/13 13:59:32;;;;;;;;;;;20.40;50.40;;;;;;5044518;28;19921;-84
2022/05/13 14:02:00;;;;;;;;;;;20.40;50.30;;;;;;5012142;28;19932;-84
2022/05/13 14:04:26;;;;;;;;;;;20.30;50.40;;;;;;5029592;28;20399;-85
2022/05/13 14:06:53;;;;;;;;;;;20.30;50.60;;;;;;5028819;28;19925;-85
2022/05/13 14:09:23;;;;;;;;;;;20.30;50.90;;;;;;5028496;28;19975;-84
2022/05/13 14:11:50;;;;;;;;;;;20.20;51.30;;;;;;5061704;28;20303;-88
2022/05/13 14:14:16;;;;;;;;;;;20.20;51.60;;;;;;5041664;28;20011;-86
2022/05/13 14:16:48;;;;;;;;;;;20.20;51.60;;;;;;5007547;28;20020;-85
2022/05/13 14:19:17;;;;;;;;;;;20.20;51.70;;;;;;5030407;28;20260;-86
2022/05/13 14:21:47;;;;;;;;;;;20.20;50.50;;;;;;5028419;28;19975;-85
2022/05/13 14:24:14;;;;;;;;;;;20.20;49.90;;;;;;5062337;28;19936;-85
2022/05/13 14:26:48;;;;;;;;;;;20.20;49.30;;;;;;5029245;28;19925;-86
2022/05/13 14:29:14;;;;;;;;;;;20.20;48.90;;;;;;5030563;28;20315;-85
2022/05/13 14:31:44;;;;;;;;;;;20.20;49.00;;;;;;5038193;28;19917;-85
2022/05/13 14:34:20;;;;;;;;;;;20.10;48.70;;;;;;5033397;28;19917;-86
2022/05/13 14:36:47;;;;;;;;;;;20.10;48.70;;;;;;5036582;28;19956;-91
2022/05/13 14:42:04;;;;;;;;;;;19.90;49.00;;;;;;5055429;28;19964;-84
2022/05/13 14:44:38;;;;;;;;;;;19.90;49.60;;;;;;5067224;28;19928;-91
2022/05/13 14:47:05;;;;;;;;;;;19.90;49.60;;;;;;5017069;28;19921;-93
2022/05/13 14:49:51;;;;;;;;;;;20.00;49.40;;;;;;5031315;28;20374;-91
2022/05/13 14:52:23;;;;;;;;;;;20.00;48.80;;;;;;5028000;28;19921;-85
2022/05/13 14:54:50;;;;;;;;;;;20.10;49.20;;;;;;5060624;28;20432;-82
2022/05/13 14:57:17;;;;;;;;;;;20.00;49.30;;;;;;5028645;28;20407;-87
2022/05/13 14:59:46;;;;;;;;;;;20.00;49.70;;;;;;5028017;28;20322;-88
2022/05/13 15:02:25;;;;;;;;;;;20.00;49.60;;;;;;5016916;28;20370;-89
2022/05/13 15:04:55;;;;;;;;;;;20.10;49.60;;;;;;5028382;28;19975;-87
2022/05/13 15:07:21;;;;;;;;;;;20.00;50.20;;;;;;5026799;28;19963;-87
2022/05/13 15:09:49;;;;;;;;;;;19.90;50.80;;;;;;5027132;28;19975;-88
2022/05/13 15:12:15;;;;;;;;;;;19.90;52.50;;;;;;5028103;28;19931;-87
2022/05/13 15:14:41;;;;;;;;;;;19.80;53.40;;;;;;5011430;28;20047;-89
2022/05/13 15:17:09;;;;;;;;;;;19.70;54.10;;;;;;5042104;28;20024;-85
2022/05/13 15:19:38;;;;;;;;;;;19.70;54.30;;;;;;5027105;28;19979;-83
2022/05/13 15:22:04;;;;;;;;;;;19.50;55.10;;;;;;5027089;28;19921;-87
2022/05/13 15:24:30;;;;;;;;;;;19.50;55.20;;;;;;5027444;28;20430;-83
2022/05/13 15:26:57;;;;;;;;;;;19.50;55.00;;;;;;5005616;28;19943;-84
2022/05/13 15:29:23;;;;;;;;;;;19.40;55.00;;;;;;5040897;28;19961;-85
2022/05/13 15:31:49;;;;;;;;;;;19.40;55.20;;;;;;5049220;28;19940;-81
2022/05/13 15:34:14;;;;;;;;;;;19.40;54.90;;;;;;5029445;28;19913;-85
2022/05/13 15:36:41;;;;;;;;;;;19.40;54.90;;;;;;5030099;28;19928;-83
2022/05/13 15:39:08;;;;;;;;;;;19.50;54.90;;;;;;5029020;28;19921;-86
2022/05/13 15:41:34;;;;;;;;;;;19.50;54.60;;;;;;5028278;28;19932;-88
2022/05/13 15:44:00;;;;;;;;;;;19.50;54.40;;;;;;5024249;28;19921;-84
2022/05/13 15:46:28;;;;;;;;;;;19.60;54.50;;;;;;5008155;28;19925;-87
2022/05/13 15:48:54;;;;;;;;;;;19.50;54.70;;;;;;4986815;28;20343;-89
2022/05/13 15:54:25;;;;;;;;;;;19.50;54.30;;;;;;4974980;28;19929;-87
2022/05/13 15:56:50;;;;;;;;;;;19.50;54.20;;;;;;4947147;28;19925;-88
2022/05/13 15:59:16;;;;;;;;;;;19.50;54.30;;;;;;4954669;28;20604;-88
2022/05/13 16:01:42;;;;;;;;;;;19.50;54.30;;;;;;4973386;28;19953;-88
2022/05/13 16:04:08;;;;;;;;;;;19.50;54.00;;;;;;4994050;28;20704;-89
2022/05/13 16:06:34;;;;;;;;;;;19.60;53.90;;;;;;4978897;28;19963;-85
2022/05/13 16:08:59;;;;;;;;;;;19.60;53.90;;;;;;4975943;28;20035;-88
2022/05/13 16:11:27;;;;;;;;;;;19.60;53.70;;;;;;4979700;28;19921;-87
2022/05/13 16:13:53;;;;;;;;;;;19.60;53.70;;;;;;5011211;28;19924;-81
2022/05/13 16:16:21;;;;;;;;;;;19.60;53.90;;;;;;5004040;28;19902;-84
2022/05/13 16:18:49;;;;;;;;;;;19.60;54.00;;;;;;5012366;28;20112;-87
2022/05/13 16:21:18;;;;;;;;;;;19.60;53.90;;;;;;5002614;28;19980;-89
2022/05/13 16:23:45;;;;;;;;;;;19.50;53.70;;;;;;4976084;28;20022;-88
2022/05/13 16:26:14;;;;;;;;;;;19.50;53.60;;;;;;5016929;28;19922;-89
2022/05/13 16:28:41;;;;;;;;;;;19.60;53.60;;;;;;5019914;28;19917;-88
2022/05/13 16:31:07;;;;;;;;;;;19.50;53.70;;;;;;5021110;28;20442;-89
2022/05/13 16:33:32;;;;;;;;;;;19.50;53.70;;;;;;5019429;28;19925;-89
2022/05/13 16:35:58;;;;;;;;;;;19.50;53.60;;;;;;5025363;28;19929;-84
2022/05/13 16:38:24;;;;;;;;;;;19.50;53.00;;;;;;4998963;28;19921;-86
2022/05/13 16:40:50;;;;;;;;;;;19.60;52.90;;;;;;5028146;28;19920;-85
2022/05/13 16:43:16;;;;;;;;;;;19.60;52.80;;;;;;5024792;28;19928;-87
2022/05/13 16:45:42;;;;;;;;;;;19.50;52.80;;;;;;4998152;28;19932;-83
2022/05/13 16:48:08;;;;;;;;;;;19.50;52.70;;;;;;4993915;28;20293;-84
2022/05/13 16:50:35;;;;;;;;;;;19.50;53.00;;;;;;5005812;28;19922;-82
2022/05/13 16:53:03;;;;;;;;;;;19.50;53.20;;;;;;5010070;28;19927;-83
2022/05/13 16:55:29;;;;;;;;;;;19.50;53.60;;;;;;5011392;28;19918;-81
2022/05/13 16:57:55;;;;;;;;;;;19.50;54.40;;;;;;5011220;28;20380;-83
2022/05/13 17:00:22;;;;;;;;;;;19.40;55.50;;;;;;5007402;28;20035;-83
2022/05/13 17:02:54;;;;;;;;;;;19.50;56.20;;;;;;5004225;28;19998;-83
2022/05/13 17:05:21;;;;;;;;;;;19.50;56.50;;;;;;5006162;28;19972;-84
2022/05/13 17:07:47;;;;;;;;;;;19.40;57.10;;;;;;4993198;28;19925;-84
2022/05/13 17:21:12;;;;;;;;;;;19.20;59.10;;;;;;5030434;28;19946;-82
2022/05/13 17:23:38;;;;;;;;;;;19.20;59.10;;;;;;5010844;28;19960;-79
2022/05/13 17:26:04;;;;;;;;;;;19.20;58.90;;;;;;5026127;28;19975;-85
2022/05/13 17:28:31;;;;;;;;;;;19.10;60.20;;;;;;5010798;28;19967;-79
2022/05/13 17:30:57;;;;;;;;;;;19.20;61.50;;;;;;5009009;28;19922;-84
2022/05/13 17:33:23;;;;;;;;;;;19.30;62.10;;;;;;5025547;28;19925;-84
2022/05/13 17:35:49;;;;;;;;;;;19.40;62.00;;;;;;5010306;28;19941;-84
2022/05/13 17:38:16;;;;;;;;;;;19.50;62.00;;;;;;5042388;28;19990;-81
2022/05/13 17:40:44;;;;;;;;;;;19.50;61.80;;;;;;4992271;28;19953;-82
2022/05/13 17:43:11;;;;;;;;;;;19.50;61.70;;;;;;5009908;28;19934;-80
2022/05/13 17:45:38;;;;;;;;;;;19.60;61.60;;;;;;5019778;28;20303;-81
2022/05/13 17:48:05;;;;;;;;;;;19.60;61.30;;;;;;5008134;28;20309;-82
2022/05/13 17:50:31;;;;;;;;;;;19.70;61.20;;;;;;5007321;28;19979;-81
2022/05/13 17:52:57;;;;;;;;;;;19.70;61.00;;;;;;5009053;28;19975;-81
2022/05/13 17:55:24;;;;;;;;;;;19.80;60.60;;;;;;5008599;28;19917;-82
2022/05/13 17:57:50;;;;;;;;;;;19.80;60.40;;;;;;5009042;28;20645;-79
2022/05/13 18:00:17;;;;;;;;;;;19.80;60.30;;;;;;5009832;28;19956;-82
2022/05/13 18:02:43;;;;;;;;;;;19.90;60.00;;;;;;5002511;28;19929;-82
2022/05/13 18:05:09;;;;;;;;;;;19.90;59.80;;;;;;5009263;28;20429;-81
2022/05/13 18:07:35;;;;;;;;;;;20.00;59.40;;;;;;5009217;28;19918;-85
2022/05/13 18:10:01;;;;;;;;;;;20.00;59.10;;;;;;5009517;28;19967;-83
2022/05/13 18:12:27;;;;;;;;;;;20.00;58.80;;;;;;5008294;28;19922;-82
2022/05/13 18:14:53;;;;;;;;;;;20.00;58.70;;;;;;5008195;28;20694;-82
2022/05/13 18:17:19;;;;;;;;;;;20.00;58.30;;;;;;5008626;28;19921;-83
2022/05/13 18:19:46;;;;;;;;;;;20.00;58.10;;;;;;5008896;28;20300;-81
2022/05/13 18:22:12;;;;;;;;;;;20.10;58.10;;;;;;5008204;28;19929;-83
2022/05/13 18:24:39;;;;;;;;;;;20.10;57.50;;;;;;5008104;28;19975;-83
2022/05/13 18:27:06;;;;;;;;;;;20.10;57.20;;;;;;4991673;28;19944;-84
2022/05/13 18:29:32;;;;;;;;;;;20.00;56.70;;;;;;4998063;28;19929;-82
2022/05/13 18:31:57;;;;;;;;;;;20.00;56.60;;;;;;5020279;28;19922;-82
2022/05/13 18:34:23;;;;;;;;;;;20.10;57.00;;;;;;5009239;28;19924;-84
2022/05/13 18:36:49;;;;;;;;;;;20.00;56.10;;;;;;5008588;28;19925;-83
2022/05/13 18:39:15;;;;;;;;;;;20.00;54.90;;;;;;5004888;28;19921;-83
2022/05/13 18:48:37;;;;;;;8.25;1.58;;;19.80;54.30;;;;;;5118181;27;20121;-81
2022/05/13 18:51:04;;;;;;;13.73;1.67;;;20.50;53.60;;;;;;5110945;28;20009;-81
2022/05/13 18:53:31;;;;;;;8.50;1.50;;;20.80;53.10;;;;;;5101213;28;20035;-79
2022/05/13 18:55:57;;;;;;;4.55;1.83;;;20.90;52.30;;;;;;5080442;28;20100;-79
2022/05/13 18:58:28;;;;;;;5.85;1.80;;;20.90;51.40;;;;;;5098880;28;20398;-79
2022/05/13 19:00:55;;;;;;;6.93;1.30;;;20.90;50.90;;;;;;5098451;28;20044;-78
2022/05/13 19:03:23;;;;;;;3.30;1.10;;;20.80;50.70;;;;;;5080064;28;20094;-78
2022/05/13 19:05:50;;;;;;;3.05;1.02;;;20.70;50.50;;;;;;5100542;28;20036;-79
2022/05/13 19:08:18;;;;;;;5.63;1.80;;;20.60;50.60;;;;;;5098076;28;20537;-82
2022/05/13 19:10:46;;;;;;;6.63;1.45;;;20.50;50.60;;;;;;5036238;28;20036;-79
2022/05/13 19:13:16;;;;;;;3.65;1.30;;;20.50;51.00;;;;;;5081269;28;20028;-77
2022/05/13 19:15:53;;;;;;;4.93;1.20;;;20.40;51.00;;;;;;5096855;28;20040;-78
2022/05/13 19:18:28;;;;;;;4.10;0.98;;;20.30;51.00;;;;;;5097073;28;20040;-78
2022/05/13 19:20:54;;;;;;;5.75;1.10;;;20.30;51.20;;;;;;5098363;28;20032;-78
2022/05/13 19:23:21;;;;;;;5.93;1.60;;;20.30;50.90;;;;;;5086330;27;20074;-80
2022/05/13 19:25:51;;;;;;;5.60;1.30;;;20.30;50.90;;;;;;5126334;27;20034;-77
2022/05/13 19:28:17;;;;;;;5.78;1.33;;;20.30;50.90;;;;;;5103659;28;20115;-78
2022/05/13 19:30:45;;;;;;;7.45;1.35;;;20.20;51.00;;;;;;5117857;27;20553;-80
2022/05/13 19:33:12;;;;;;;5.32;1.15;;;20.20;50.90;;;;;;5116633;27;20039;-79
2022/05/13 19:35:41;;;;;;;4.30;1.10;;;20.20;51.00;;;;;;5116845;27;20027;-79
2022/05/13 19:38:08;;;;;;;4.50;0.98;;;20.10;51.00;;;;;;5100087;28;20027;-81
2022/05/13 19:40:36;;;;;;;5.20;1.23;;;20.10;51.30;;;;;;5110734;28;20126;-80
2022/05/13 19:43:02;;;;;;;5.15;1.20;;;20.10;51.50;;;;;;5097225;28;20065;-80
2022/05/13 19:45:28;;;;;;;5.90;1.00;;;20.10;51.50;;;;;;5099078;27;20024;-82
2022/05/13 19:47:54;;;;;;;7.65;1.13;;;20.10;51.30;;;;;;5099545;28;20051;-80
2022/05/13 19:50:22;;;;;;;6.50;0.95;;;20.10;51.30;;;;;;5096681;28;20089;-79
2022/05/13 19:52:49;;;;;;;3.60;0.80;;;20.10;51.00;;;;;;5076646;28;20081;-78
2022/05/13 19:55:16;;;;;;;6.35;1.15;;;20.00;51.50;;;;;;5115110;28;20027;-78
2022/05/13 19:57:43;;;;;;;5.20;0.70;;;20.00;52.00;;;;;;5094686;28;20032;-79
2022/05/13 20:00:12;;;;;;;7.03;1.13;;;20.00;52.10;;;;;;5081219;28;20043;-79
2022/05/13 20:02:38;;;;;;;3.33;1.15;;;20.00;52.60;;;;;;5081512;28;20029;-79
2022/05/13 20:10:40;;;;;;;2.25;0.80;;;20.00;52.60;;;;;;5085069;28;20055;-80
2022/05/13 20:13:10;;;;;;;6.10;1.30;;;20.00;52.20;;;;;;5081811;28;20093;-83
2022/05/13 20:15:40;;;;;;;4.25;1.13;;;19.90;52.30;;;;;;5081792;28;20028;-82
2022/05/13 20:18:10;;;;;;;6.78;1.20;;;19.90;52.50;;;;;;5083947;27;20032;-78
2022/05/13 20:23:21;;;;;;;3.20;1.10;;;19.90;52.70;;;;;;5080891;28;20043;-80
2022/05/13 20:25:47;;;;;;;3.65;1.20;;;19.90;52.40;;;;;;5083303;28;20032;-79
2022/05/13 20:28:13;;;;;;;2.45;0.90;;;19.90;52.20;;;;;;5084047;28;20050;-78
2022/05/13 20:30:40;;;;;;;4.72;0.95;;;19.90;52.50;;;;;;5080164;28;20121;-79
2022/05/13 20:33:07;;;;;;;3.60;1.00;;;19.90;52.50;;;;;;5080405;28;20172;-78
2022/05/13 20:35:33;;;;;;;4.18;1.10;;;19.90;52.20;;;;;;5078805;28;20489;-79
2022/05/13 20:38:00;;;;;;;2.88;0.90;;;19.90;52.10;;;;;;5080500;28;20047;-79
2022/05/13 20:40:27;;;;;;;3.97;1.23;;;19.90;51.90;;;;;;5083923;28;20081;-79
2022/05/13 20:42:53;;;;;;;4.38;1.27;;;19.90;51.90;;;;;;5079994;28;20036;-78
2022/05/13 20:45:19;;;;;;;4.28;1.10;;;19.90;52.10;;;;;;5064148;28;20042;-78
2022/05/13 20:47:45;;;;;;;2.22;0.80;;;19.90;52.20;;;;;;5067507;28;20165;-78
2022/05/13 20:50:15;;;;;;;2.10;0.98;;;19.90;52.20;;;;;;5081207;28;20109;-78
2022/05/13 20:52:41;;;;;;;4.82;1.00;;;19.90;52.10;;;;;;5079379;28;20040;-78
2022/05/13 20:55:07;;;;;;;3.90;0.80;;;19.90;52.10;;;;;;5080772;28;20032;-78
2022/05/13 20:57:35;;;;;;;3.03;0.80;;;19.90;51.90;;;;;;5082479;28;21126;-78
2022/05/13 21:00:03;;;;;;;1.73;0.80;;;19.90;51.60;;;;;;5082149;28;20129;-79
2022/05/13 21:02:29;;;;;;;2.47;0.80;;;19.90;51.90;;;;;;5081117;28;20036;-78
2022/05/13 21:04:57;;;;;;;3.40;1.23;;;19.80;51.80;;;;;;5079606;28;20031;-78
2022/05/13 21:07:28;;;;;;;1.98;0.85;;;19.80;52.00;;;;;;5083854;28;21087;-78
2022/05/13 21:09:55;;;;;;;2.13;0.90;;;19.80;52.00;;;;;;5077763;28;20528;-78
2022/05/13 21:12:21;;;;;;;3.85;0.88;;;19.80;51.80;;;;;;5080506;28;20041;-78
2022/05/13 21:14:48;;;;;;;2.30;0.80;;;19.80;52.30;;;;;;5083189;28;20032;-78
2022/05/13 21:17:15;;;;;;;4.38;1.00;;;19.80;52.20;;;;;;5082544;28;20750;-78
2022/05/13 21:19:41;;;;;;;4.28;1.00;;;19.80;52.10;;;;;;5079049;28;20039;-76
2022/05/13 21:22:08;;;;;;;4.95;1.00;;;19.80;52.10;;;;;;5080961;28;20036;-77
2022/05/13 21:24:34;;;;;;;3.63;0.80;;;19.70;52.40;;;;;;5081647;28;20039;-78
2022/05/13 21:27:04;;;;;;;2.08;0.73;;;19.70;52.60;;;;;;5081509;28;20062;-78
2022/05/13 21:29:30;;;;;;;2.33;1.00;;;19.80;52.80;;;;;;5116327;27;20028;-78
2022/05/13 21:37:26;;;;;;;2.38;1.38;;;19.70;52.00;;;;;;5081727;28;20480;-77
2022/05/13 21:39:52;;;;;;;1.83;1.20;;;19.70;51.90;;;;;;5081006;28;20428;-77
2022/05/13 21:42:18;;;;;;;3.30;1.25;;;19.60;51.80;;;;;;5079670;27;20036;-77
2022/05/13 21:44:44;;;;;;;3.47;1.10;;;19.60;51.90;;;;;;5066930;28;20043;-77
2022/05/13 21:47:10;;;;;;;3.75;0.80;;;19.60;52.10;;;;;;5083757;28;20104;-78
2022/05/13 21:49:36;;;;;;;4.60;0.98;;;19.60;52.10;;;;;;5083824;28;20115;-78
2022/05/13 21:52:02;;;;;;;2.55;1.10;;;19.60;51.80;;;;;;5080840;28;20123;-78
2022/05/13 21:54:33;;;;;;;2.03;1.00;;;19.50;51.70;;;;;;5078292;28;20036;-78
2022/05/13 21:56:59;;;;;;;4.03;0.85;;;19.60;51.70;;;;;;5079732;28;20036;-78
2022/05/13 21:59:25;;;;;;;3.00;1.10;;;19.50;51.50;;;;;;5078703;28;20028;-78
2022/05/13 22:01:52;;;;;;;3.50;1.13;;;19.50;51.30;;;;;;5081513;28;20118;-78
2022/05/13 22:04:19;;;;;;;4.35;1.17;;;19.50;51.40;;;;;;5080151;28;20491;-78
2022/05/13 22:06:45;;;;;;;1.92;0.90;;;19.50;51.30;;;;;;5080048;27;20387;-78
2022/05/13 22:09:12;;;;;;;2.10;1.00;;;19.50;51.30;;;;;;5080246;28;20744;-77
2022/05/13 22:11:39;;;;;;;2.60;1.30;;;19.40;51.00;;;;;;5081792;27;20566;-78
2022/05/13 22:14:06;;;;;;;1.95;0.90;;;19.40;51.10;;;;;;5080732;27;20035;-78
2022/05/13 22:16:33;;;;;;;1.17;0.95;;;19.40;51.00;;;;;;5082599;28;20044;-77
2022/05/13 22:18:59;;;;;;;3.28;1.00;;;19.30;51.30;;;;;;5079741;28;20452;-77
2022/05/13 22:21:26;;;;;;;3.63;1.00;;;19.30;50.60;;;;;;5081361;27;20139;-78
2022/05/13 22:23:53;;;;;;;4.95;1.08;;;19.30;50.80;;;;;;5082092;27;20434;-77
2022/05/13 22:26:20;;;;;;;3.05;1.00;;;19.30;50.90;;;;;;5051194;28;20037;-77
2022/05/13 22:28:47;;;;;;;4.43;1.00;;;19.30;50.90;;;;;;5080772;28;20027;-78
2022/05/13 22:31:13;;;;;;;2.28;1.05;;;19.20;51.00;;;;;;5081103;28;20065;-78
2022/05/13 22:33:39;;;;;;;2.47;0.82;;;19.30;51.10;;;;;;5082067;28;20032;-78
2022/05/13 22:36:06;;;;;;;1.77;1.15;;;19.30;50.90;;;;;;5082522;28;20513;-78
2022/05/13 22:38:32;;;;;;;3.40;1.00;;;19.20;51.10;;;;;;5080409;28;20040;-79
2022/05/13 22:40:58;;;;;;;3.88;1.20;;;19.30;51.20;;;;;;5081493;28;20119;-79
2022/05/13 22:43:28;;;;;;;3.63;0.85;;;19.30;51.40;;;;;;5080772;28;20028;-79
2022/05/13 22:45:55;;;;;;;2.50;0.90;;;19.30;51.30;;;;;;5079049;28;20175;-79
2022/05/13 22:48:26;;;;;;;1.33;0.80;;;19.30;51.10;;;;;;5078861;28;20081;-79
2022/05/13 22:50:54;;;;;;;1.70;0.98;;;19.30;51.20;;;;;;5080562;27;20085;-79
2022/05/13 22:53:21;;;;;;;1.52;0.68;;;19.30;51.00;;;;;;5081574;27;20040;-80
2022/05/13 22:55:47;;;;;;;3.28;1.60;;;19.30;50.80;;;;;;5079745;27;20028;-79
2022/05/13 22:58:14;;;;;;;1.95;1.20;;;19.30;50.70;;;;;;5080827;28;20020;-79
2022/05/13 23:00:40;;;;;;;4.35;1.02;;;19.30;50.70;;;;;;5079289;28;20055;-80
2022/05/13 23:03:07;;;;;;;4.45;1.00;;;19.30;50.60;;;;;;5079264;28;20028;-80
2022/05/13 23:11:15;;;;;;;1.58;1.02;;;19.20;50.70;;;;;;5095018;28;20033;-80
2022/05/13 23:13:33;;;;;;;2.03;1.10;;;19.20;50.70;;;;;;5080248;28;20060;-80
2022/05/13 23:15:59;;;;;;;1.58;0.80;;;19.20;51.00;;;;;;5079963;28;20499;-80
2022/05/13 23:18:25;;;;;;;4.95;1.08;;;19.20;50.90;;;;;;5083435;28;20039;-80
2022/05/13 23:20:51;;;;;;;4.50;1.23;;;19.20;50.90;;;;;;5066437;28;20881;-79
2022/05/13 23:23:17;;;;;;;2.22;0.82;;;19.20;51.00;;;;;;5078501;28;20648;-80
2022/05/13 23:25:43;;;;;;;4.93;1.27;;;19.20;50.80;;;;;;5079929;27;20166;-80
2022/05/13 23:28:09;;;;;;;4.22;0.88;;;19.20;50.50;;;;;;5081570;28;20413;-80
2022/05/13 23:30:35;;;;;;;2.17;0.80;;;19.10;50.70;;;;;;5078786;27;20058;-80
2022/05/13 23:33:01;;;;;;;1.42;1.00;;;19.20;50.70;;;;;;5079765;28;20043;-81
2022/05/13 23:35:28;;;;;;;2.13;1.00;;;19.10;50.60;;;;;;5080271;28;20028;-80
2022/05/13 23:37:54;;;;;;;2.60;0.82;;;19.20;50.80;;;;;;5083696;28;20063;-80
2022/05/13 23:40:21;;;;;;;1.85;0.88;;;19.10;50.70;;;;;;5084323;28;20035;-80
2022/05/13 23:42:47;;;;;;;4.85;1.10;;;19.10;50.20;;;;;;5065251;28;20541;-80
2022/05/13 23:45:13;;;;;;;2.75;0.90;;;19.10;50.40;;;;;;5082262;28;20040;-80
2022/05/13 23:47:39;;;;;;;1.92;0.90;;;19.10;50.50;;;;;;5081166;28;20110;-80
2022/05/13 23:50:06;;;;;;;2.17;0.85;;;19.10;50.80;;;;;;5083652;28;20439;-80
2022/05/13 23:58:01;;;;;;;2.38;1.30;;;19.00;50.50;;;;;;5083700;27;20033;-80
